Time,TemperatureF,DewpointF,PressureIn,WindDirection,WindDirectionDegrees,WindSpeedMPH,WindSpeedGustMPH,Humidity,HourlyPrecipIn,Conditions,Clouds,dailyrainin,SoftwareType,DateUTC
2013-10-19 00:02:00,77.2,73.0,29.96,South,180,0.0,2.0,87,0.00,,,0.00,meteohub,2013-10-19 04:02:00,
2013-10-19 00:03:00,77.2,73.0,29.96,SW,225,0.0,2.0,87,0.00,,,0.00,meteohub,2013-10-19 04:03:00,
2013-10-19 00:04:00,77.0,72.9,29.96,East,90,0.0,2.0,87,0.00,,,0.00,meteohub,2013-10-19 04:04:00,
2013-10-19 00:05:00,77.0,72.9,29.96,East,90,0.0,2.0,87,0.00,,,0.00,meteohub,2013-10-19 04:05:00,
2013-10-19 00:06:00,77.0,72.9,29.96,East,90,0.0,2.0,87,0.00,,,0.00,meteohub,2013-10-19 04:06:00,
2013-10-19 00:10:00,77.0,72.9,29.96,SE,135,0.0,2.0,87,0.00,,,0.00,meteohub,2013-10-19 04:10:00,
2013-10-19 00:15:00,76.8,73.0,29.96,South,180,2.0,2.0,88,0.00,,,0.00,meteohub,2013-10-19 04:15:00,
2013-10-19 00:20:00,76.8,73.0,29.96,South,180,2.0,2.0,88,0.00,,,0.00,meteohub,2013-10-19 04:20:00,
2013-10-19 00:25:00,76.8,73.0,29.96,South,180,3.0,3.0,88,0.00,,,0.00,meteohub,2013-10-19 04:25:00,
2013-10-19 00:30:00,76.8,73.0,29.96,SE,135,2.0,5.0,88,0.00,,,0.00,meteohub,2013-10-19 04:30:00,
2013-10-19 00:35:00,76.8,73.0,29.96,South,180,3.0,5.0,88,0.00,,,0.00,meteohub,2013-10-19 04:35:00,
2013-10-19 00:40:00,76.6,72.9,29.95,South,180,2.0,3.0,88,0.00,,,0.00,meteohub,2013-10-19 04:40:00,
2013-10-19 00:45:00,76.6,72.5,29.96,South,180,1.0,3.0,87,0.00,,,0.00,meteohub,2013-10-19 04:45:00,
2013-10-19 00:50:00,76.6,72.5,29.96,South,180,2.0,3.0,87,0.00,,,0.00,meteohub,2013-10-19 04:50:00,
2013-10-19 00:55:00,76.5,72.3,29.96,West,270,3.0,3.0,87,0.00,,,0.00,meteohub,2013-10-19 04:55:00,
2013-10-19 01:00:00,76.5,72.3,29.95,East,90,3.0,3.0,87,0.00,,,0.00,meteohub,2013-10-19 05:00:00,
2013-10-19 01:06:00,76.5,72.3,29.95,East,90,1.0,3.0,87,0.00,,,0.00,meteohub,2013-10-19 05:06:00,
2013-10-19 01:11:00,76.3,72.1,29.95,South,180,2.0,3.0,87,0.00,,,0.00,meteohub,2013-10-19 05:11:00,
2013-10-19 01:16:00,76.3,72.1,29.95,SW,225,3.0,4.0,87,0.00,,,0.00,meteohub,2013-10-19 05:16:00,
2013-10-19 01:21:00,76.1,72.0,29.95,SE,135,4.0,4.0,87,0.00,,,0.00,meteohub,2013-10-19 05:21:00,
2013-10-19 01:26:00,76.1,72.0,29.95,South,180,2.0,4.0,87,0.00,,,0.00,meteohub,2013-10-19 05:26:00,
2013-10-19 01:31:00,76.1,72.0,29.95,SE,135,2.0,4.0,87,0.00,,,0.00,meteohub,2013-10-19 05:31:00,
2013-10-19 01:36:00,76.1,72.0,29.95,South,180,1.0,4.0,87,0.00,,,0.00,meteohub,2013-10-19 05:36:00,
2013-10-19 01:41:00,75.9,71.8,29.95,South,180,1.0,3.0,87,0.00,,,0.00,meteohub,2013-10-19 05:41:00,
2013-10-19 01:46:00,75.9,71.8,29.95,South,180,0.0,3.0,87,0.00,,,0.00,meteohub,2013-10-19 05:46:00,
2013-10-19 01:51:00,75.7,71.6,29.95,South,180,0.0,2.0,87,0.00,,,0.00,meteohub,2013-10-19 05:51:00,
2013-10-19 01:56:00,75.4,71.2,29.95,South,180,0.0,2.0,87,0.00,,,0.00,meteohub,2013-10-19 05:56:00,
2013-10-19 02:01:00,75.2,71.1,29.95,South,180,0.0,0.0,87,0.00,,,0.00,meteohub,2013-10-19 06:01:00,
2013-10-19 02:07:00,74.8,71.4,29.95,South,180,0.0,0.0,89,0.00,,,0.00,meteohub,2013-10-19 06:07:00,
2013-10-19 02:12:00,74.7,71.2,29.95,South,180,0.0,0.0,89,0.00,,,0.00,meteohub,2013-10-19 06:12:00,
2013-10-19 02:17:00,74.3,70.9,29.95,South,180,0.0,0.0,89,0.00,,,0.00,meteohub,2013-10-19 06:17:00,
2013-10-19 02:22:00,73.9,70.5,29.95,South,180,0.0,0.0,89,0.00,,,0.00,meteohub,2013-10-19 06:22:00,
2013-10-19 02:27:00,73.8,70.7,29.95,South,180,0.0,0.0,90,0.00,,,0.00,meteohub,2013-10-19 06:27:00,
2013-10-19 02:32:00,73.6,70.5,29.95,South,180,0.0,0.0,90,0.00,,,0.00,meteohub,2013-10-19 06:32:00,
2013-10-19 02:37:00,73.4,70.3,29.94,South,180,0.0,0.0,90,0.00,,,0.00,meteohub,2013-10-19 06:37:00,
2013-10-19 02:42:00,73.2,70.5,29.94,South,180,2.0,0.0,91,0.00,,,0.00,meteohub,2013-10-19 06:42:00,
2013-10-19 02:47:00,73.4,70.5,29.94,South,180,0.0,2.0,91,0.00,,,0.00,meteohub,2013-10-19 06:47:00,
2013-10-19 02:52:00,73.6,71.1,29.94,South,180,0.0,2.0,92,0.00,,,0.00,meteohub,2013-10-19 06:52:00,
2013-10-19 02:57:00,73.8,71.2,29.94,South,180,0.0,2.0,92,0.00,,,0.00,meteohub,2013-10-19 06:57:00,
2013-10-19 03:02:00,73.8,71.2,29.94,South,180,0.0,0.0,92,0.00,,,0.00,meteohub,2013-10-19 07:02:00,
2013-10-19 03:07:00,73.6,71.1,29.94,South,180,0.0,0.0,92,0.00,,,0.00,meteohub,2013-10-19 07:07:00,
2013-10-19 03:12:00,73.4,70.9,29.94,South,180,0.0,0.0,92,0.00,,,0.00,meteohub,2013-10-19 07:12:00,
2013-10-19 03:17:00,73.4,70.9,29.94,South,180,0.0,0.0,92,0.00,,,0.00,meteohub,2013-10-19 07:17:00,
2013-10-19 03:22:00,73.2,70.5,29.93,South,180,0.0,0.0,91,0.00,,,0.00,meteohub,2013-10-19 07:22:00,
2013-10-19 03:27:00,73.0,70.3,29.94,South,180,0.0,0.0,91,0.00,,,0.00,meteohub,2013-10-19 07:27:00,
2013-10-19 03:32:00,73.0,70.3,29.94,South,180,0.0,0.0,91,0.00,,,0.00,meteohub,2013-10-19 07:32:00,
2013-10-19 03:37:00,72.9,70.3,29.94,South,180,0.0,0.0,92,0.00,,,0.00,meteohub,2013-10-19 07:37:00,
2013-10-19 03:42:00,72.7,70.2,29.94,South,180,0.0,0.0,92,0.00,,,0.00,meteohub,2013-10-19 07:42:00,
2013-10-19 03:47:00,72.5,70.0,29.94,South,180,0.0,0.0,92,0.00,,,0.00,meteohub,2013-10-19 07:47:00,
2013-10-19 03:52:00,72.3,69.8,29.94,South,180,0.0,0.0,92,0.00,,,0.00,meteohub,2013-10-19 07:52:00,
2013-10-19 03:57:00,72.1,69.6,29.94,South,180,0.0,0.0,92,0.00,,,0.00,meteohub,2013-10-19 07:57:00,
2013-10-19 04:02:00,72.1,69.6,29.94,South,180,0.0,0.0,92,0.00,,,0.00,meteohub,2013-10-19 08:02:00,
2013-10-19 04:07:00,72.0,69.4,29.94,South,180,0.0,0.0,92,0.00,,,0.00,meteohub,2013-10-19 08:07:00,
2013-10-19 04:12:00,72.0,69.4,29.94,South,180,0.0,0.0,92,0.00,,,0.00,meteohub,2013-10-19 08:12:00,
2013-10-19 04:17:00,72.1,70.0,29.94,South,180,0.0,0.0,93,0.00,,,0.00,meteohub,2013-10-19 08:17:00,
2013-10-19 04:22:00,72.1,70.0,29.93,SE,135,0.0,0.0,93,0.00,,,0.00,meteohub,2013-10-19 08:22:00,
2013-10-19 04:27:00,72.3,70.2,29.93,SE,135,0.0,0.0,93,0.00,,,0.00,meteohub,2013-10-19 08:27:00,
2013-10-19 04:32:00,72.5,70.3,29.93,South,180,0.0,0.0,93,0.00,,,0.00,meteohub,2013-10-19 08:32:00,
2013-10-19 04:37:00,72.5,70.3,29.93,South,180,2.0,0.0,93,0.00,,,0.00,meteohub,2013-10-19 08:37:00,
2013-10-19 04:42:00,72.5,70.3,29.94,South,180,0.0,2.0,93,0.00,,,0.00,meteohub,2013-10-19 08:42:00,
2013-10-19 04:47:00,72.5,70.3,29.94,South,180,0.0,2.0,93,0.00,,,0.00,meteohub,2013-10-19 08:47:00,
2013-10-19 04:52:00,72.5,70.3,29.94,South,180,0.0,2.0,93,0.00,,,0.00,meteohub,2013-10-19 08:52:00,
2013-10-19 04:57:00,72.7,70.5,29.94,South,180,0.0,2.0,93,0.00,,,0.00,meteohub,2013-10-19 08:57:00,
2013-10-19 05:02:00,72.5,70.3,29.94,South,180,0.0,2.0,93,0.00,,,0.00,meteohub,2013-10-19 09:02:00,
2013-10-19 05:07:00,72.5,70.3,29.94,South,180,0.0,1.0,93,0.00,,,0.00,meteohub,2013-10-19 09:07:00,
2013-10-19 05:12:00,72.3,70.2,29.94,South,180,0.0,0.0,93,0.00,,,0.00,meteohub,2013-10-19 09:12:00,
2013-10-19 05:17:00,72.3,70.2,29.94,South,180,0.0,0.0,93,0.00,,,0.00,meteohub,2013-10-19 09:17:00,
2013-10-19 05:22:00,72.1,70.0,29.94,South,180,0.0,0.0,93,0.00,,,0.00,meteohub,2013-10-19 09:22:00,
2013-10-19 05:27:00,72.0,69.8,29.94,South,180,0.0,0.0,93,0.00,,,0.00,meteohub,2013-10-19 09:27:00,
2013-10-19 05:32:00,71.8,69.6,29.94,South,180,0.0,0.0,93,0.00,,,0.00,meteohub,2013-10-19 09:32:00,
2013-10-19 05:37:00,71.8,69.6,29.94,South,180,0.0,0.0,93,0.00,,,0.00,meteohub,2013-10-19 09:37:00,
2013-10-19 05:42:00,71.6,69.4,29.94,South,180,0.0,0.0,93,0.00,,,0.00,meteohub,2013-10-19 09:42:00,
2013-10-19 05:47:00,71.6,69.4,29.94,South,180,0.0,0.0,93,0.00,,,0.00,meteohub,2013-10-19 09:47:00,
2013-10-19 05:52:00,71.4,69.6,29.94,South,180,0.0,0.0,94,0.00,,,0.00,meteohub,2013-10-19 09:52:00,
2013-10-19 05:57:00,71.4,70.0,29.94,South,180,0.0,0.0,95,0.00,,,0.00,meteohub,2013-10-19 09:57:00,
2013-10-19 06:02:00,71.2,69.8,29.94,South,180,0.0,0.0,95,0.00,,,0.00,meteohub,2013-10-19 10:02:00,
2013-10-19 06:07:00,71.2,69.8,29.94,South,180,0.0,0.0,95,0.00,,,0.00,meteohub,2013-10-19 10:07:00,
2013-10-19 06:12:00,71.1,69.6,29.94,South,180,0.0,0.0,95,0.00,,,0.00,meteohub,2013-10-19 10:12:00,
2013-10-19 06:17:00,70.9,69.4,29.94,South,180,0.0,0.0,95,0.00,,,0.00,meteohub,2013-10-19 10:17:00,
2013-10-19 06:22:00,70.9,69.4,29.94,South,180,0.0,0.0,95,0.00,,,0.00,meteohub,2013-10-19 10:22:00,
2013-10-19 06:27:00,70.9,69.4,29.94,South,180,0.0,0.0,95,0.00,,,0.00,meteohub,2013-10-19 10:27:00,
2013-10-19 06:32:00,70.5,69.1,29.94,South,180,0.0,0.0,95,0.00,,,0.00,meteohub,2013-10-19 10:32:00,
2013-10-19 06:37:00,70.5,69.1,29.95,South,180,0.0,0.0,95,0.00,,,0.00,meteohub,2013-10-19 10:37:00,
2013-10-19 06:42:00,70.5,69.1,29.94,South,180,0.0,0.0,95,0.00,,,0.00,meteohub,2013-10-19 10:42:00,
2013-10-19 06:47:00,70.5,69.1,29.95,South,180,0.0,0.0,95,0.00,,,0.00,meteohub,2013-10-19 10:47:00,
2013-10-19 06:52:00,70.5,69.1,29.95,South,180,0.0,0.0,95,0.00,,,0.00,meteohub,2013-10-19 10:52:00,
2013-10-19 06:57:00,70.5,69.1,29.94,South,180,0.0,0.0,95,0.00,,,0.00,meteohub,2013-10-19 10:57:00,
2013-10-19 07:02:00,70.5,69.3,29.95,South,180,0.0,0.0,96,0.00,,,0.00,meteohub,2013-10-19 11:02:00,
2013-10-19 07:07:00,70.5,69.3,29.94,South,180,0.0,0.0,96,0.00,,,0.00,meteohub,2013-10-19 11:07:00,
2013-10-19 07:12:00,70.5,69.3,29.95,South,180,0.0,0.0,96,0.00,,,0.00,meteohub,2013-10-19 11:12:00,
2013-10-19 07:17:00,70.5,69.3,29.95,South,180,0.0,0.0,96,0.00,,,0.00,meteohub,2013-10-19 11:17:00,
2013-10-19 07:22:00,70.5,69.3,29.95,South,180,0.0,0.0,96,0.00,,,0.00,meteohub,2013-10-19 11:22:00,
2013-10-19 07:27:00,70.5,69.3,29.95,South,180,0.0,0.0,96,0.00,,,0.00,meteohub,2013-10-19 11:27:00,
2013-10-19 07:32:00,70.3,69.1,29.95,South,180,0.0,0.0,96,0.00,,,0.00,meteohub,2013-10-19 11:32:00,
2013-10-19 07:37:00,70.3,69.1,29.95,South,180,0.0,0.0,96,0.00,,,0.00,meteohub,2013-10-19 11:37:00,
2013-10-19 07:42:00,70.3,69.1,29.95,South,180,0.0,0.0,96,0.00,,,0.00,meteohub,2013-10-19 11:42:00,
2013-10-19 07:47:00,70.3,69.1,29.94,South,180,0.0,0.0,96,0.00,,,0.00,meteohub,2013-10-19 11:47:00,
2013-10-19 07:52:00,70.5,69.3,29.95,South,180,0.0,0.0,96,0.00,,,0.00,meteohub,2013-10-19 11:52:00,
2013-10-19 07:57:00,70.5,69.3,29.95,South,180,0.0,0.0,96,0.00,,,0.00,meteohub,2013-10-19 11:57:00,
2013-10-19 08:02:00,70.5,69.3,29.95,South,180,0.0,0.0,96,0.00,,,0.00,meteohub,2013-10-19 12:02:00,
2013-10-19 08:07:00,70.5,69.6,29.95,South,180,0.0,0.0,97,0.00,,,0.00,meteohub,2013-10-19 12:07:00,
2013-10-19 08:12:00,70.7,69.8,29.95,South,180,0.0,0.0,97,0.00,,,0.00,meteohub,2013-10-19 12:12:00,
2013-10-19 08:17:00,71.1,70.2,29.95,SE,135,0.0,0.0,97,0.00,,,0.00,meteohub,2013-10-19 12:17:00,
2013-10-19 08:22:00,71.4,70.5,29.95,South,180,0.0,1.0,97,0.00,,,0.00,meteohub,2013-10-19 12:22:00,
2013-10-19 08:27:00,72.0,70.7,29.95,South,180,0.0,1.0,96,0.00,,,0.00,meteohub,2013-10-19 12:27:00,
2013-10-19 08:32:00,72.5,71.2,29.95,South,180,0.0,1.0,96,0.00,,,0.00,meteohub,2013-10-19 12:32:00,
2013-10-19 08:37:00,73.0,72.1,29.96,South,180,4.0,4.0,97,0.00,,,0.00,meteohub,2013-10-19 12:37:00,
2013-10-19 08:42:00,73.6,73.0,29.95,South,180,2.0,4.0,98,0.00,,,0.00,meteohub,2013-10-19 12:42:00,
2013-10-19 08:47:00,74.5,73.9,29.95,SW,225,3.0,4.0,98,0.00,,,0.00,meteohub,2013-10-19 12:47:00,
2013-10-19 08:52:00,75.4,74.5,29.96,South,180,2.0,4.0,97,0.00,,,0.00,meteohub,2013-10-19 12:52:00,
2013-10-19 08:57:00,75.9,75.0,29.96,East,90,3.0,4.0,97,0.00,,,0.00,meteohub,2013-10-19 12:57:00,
2013-10-19 09:02:00,76.5,75.2,29.96,SE,135,2.0,4.0,96,0.00,,,0.00,meteohub,2013-10-19 13:02:00,
2013-10-19 09:07:00,77.0,75.2,29.96,SW,225,1.0,4.0,94,0.00,,,0.00,meteohub,2013-10-19 13:07:00,
2013-10-19 09:12:00,77.4,74.8,29.96,South,180,2.0,4.0,92,0.00,,,0.00,meteohub,2013-10-19 13:12:00,
2013-10-19 09:17:00,77.7,74.8,29.96,SW,225,3.0,4.0,91,0.00,,,0.00,meteohub,2013-10-19 13:17:00,
2013-10-19 09:22:00,78.1,74.5,29.96,South,180,3.0,4.0,89,0.00,,,0.00,meteohub,2013-10-19 13:22:00,
2013-10-19 09:27:00,78.4,74.7,29.96,SW,225,2.0,5.0,88,0.00,,,0.00,meteohub,2013-10-19 13:27:00,
2013-10-19 09:32:00,79.0,74.8,29.96,SE,135,4.0,5.0,87,0.00,,,0.00,meteohub,2013-10-19 13:32:00,
2013-10-19 09:37:00,79.3,74.8,29.96,SW,225,4.0,5.0,86,0.00,,,0.00,meteohub,2013-10-19 13:37:00,
2013-10-19 09:42:00,79.7,74.5,29.97,South,180,3.0,4.0,84,0.00,,,0.00,meteohub,2013-10-19 13:42:00,
2013-10-19 09:47:00,80.2,74.7,29.96,South,180,4.0,4.0,83,0.00,,,0.00,meteohub,2013-10-19 13:47:00,
2013-10-19 09:52:00,80.8,74.5,29.96,SE,135,3.0,5.0,81,0.00,,,0.00,meteohub,2013-10-19 13:52:00,
2013-10-19 09:57:00,81.3,74.1,29.97,South,180,5.0,5.0,79,0.00,,,0.00,meteohub,2013-10-19 13:57:00,
2013-10-19 10:02:00,82.0,73.4,29.97,South,180,5.0,6.0,75,0.00,,,0.00,meteohub,2013-10-19 14:02:00,
2013-10-19 10:07:00,82.4,73.8,29.96,South,180,3.0,6.0,75,0.00,,,0.00,meteohub,2013-10-19 14:07:00,
2013-10-19 10:12:00,82.8,73.6,29.97,South,180,4.0,6.0,74,0.00,,,0.00,meteohub,2013-10-19 14:12:00,
2013-10-19 10:17:00,83.1,73.6,29.96,SW,225,8.0,8.0,73,0.00,,,0.00,meteohub,2013-10-19 14:17:00,
2013-10-19 10:22:00,83.3,73.4,29.96,SE,135,4.0,8.0,72,0.00,,,0.00,meteohub,2013-10-19 14:22:00,
2013-10-19 10:27:00,83.5,73.0,29.96,SW,225,8.0,8.0,71,0.00,,,0.00,meteohub,2013-10-19 14:27:00,
2013-10-19 10:32:00,83.8,73.4,29.97,SW,225,3.0,8.0,71,0.00,,,0.00,meteohub,2013-10-19 14:32:00,
2013-10-19 10:37:00,84.4,73.0,29.96,South,180,3.0,8.0,69,0.00,,,0.00,meteohub,2013-10-19 14:37:00,
2013-10-19 10:42:00,84.6,72.9,29.97,South,180,7.0,8.0,68,0.00,,,0.00,meteohub,2013-10-19 14:42:00,
2013-10-19 10:47:00,84.7,73.4,29.97,SW,225,4.0,8.0,69,0.00,,,0.00,meteohub,2013-10-19 14:47:00,
2013-10-19 10:52:00,84.7,72.5,29.97,East,90,6.0,8.0,67,0.00,,,0.00,meteohub,2013-10-19 14:52:00,
2013-10-19 10:58:00,85.1,72.9,29.96,West,270,4.0,8.0,67,0.00,,,0.00,meteohub,2013-10-19 14:58:00,
2013-10-19 11:03:00,85.3,73.0,29.97,SE,135,4.0,7.0,67,0.00,,,0.00,meteohub,2013-10-19 15:03:00,
2013-10-19 11:08:00,85.6,73.0,29.96,SW,225,3.0,6.0,66,0.00,,,0.00,meteohub,2013-10-19 15:08:00,
2013-10-19 11:13:00,86.0,73.2,29.96,SW,225,4.0,6.0,66,0.00,,,0.00,meteohub,2013-10-19 15:13:00,
2013-10-19 11:18:00,86.0,72.9,29.96,SE,135,5.0,6.0,65,0.00,,,0.00,meteohub,2013-10-19 15:18:00,
2013-10-19 11:23:00,86.4,73.2,29.97,SW,225,4.0,6.0,65,0.00,,,0.00,meteohub,2013-10-19 15:23:00,
2013-10-19 11:28:00,86.4,72.7,29.97,South,180,3.0,7.0,64,0.00,,,0.00,meteohub,2013-10-19 15:28:00,
2013-10-19 11:33:00,86.4,72.7,29.96,West,270,2.0,7.0,64,0.00,,,0.00,meteohub,2013-10-19 15:33:00,
2013-10-19 11:38:00,87.3,73.6,29.96,South,180,4.0,7.0,64,0.00,,,0.00,meteohub,2013-10-19 15:38:00,
2013-10-19 11:43:00,87.4,72.9,29.96,NNW,338,7.0,7.0,62,0.00,,,0.00,meteohub,2013-10-19 15:43:00,
2013-10-19 11:48:00,87.3,72.7,29.96,SE,135,4.0,6.0,62,0.00,,,0.00,meteohub,2013-10-19 15:48:00,
2013-10-19 11:53:00,87.1,72.5,29.96,East,90,2.0,7.0,62,0.00,,,0.00,meteohub,2013-10-19 15:53:00,
2013-10-19 11:58:00,86.7,72.7,29.95,North,0,3.0,7.0,63,0.00,,,0.00,meteohub,2013-10-19 15:58:00,
2013-10-19 12:03:00,87.1,72.9,29.95,SW,225,4.0,7.0,63,0.00,,,0.00,meteohub,2013-10-19 16:03:00,
2013-10-19 12:09:00,87.3,73.0,29.95,East,90,2.0,5.0,63,0.00,,,0.00,meteohub,2013-10-19 16:09:00,
2013-10-19 12:14:00,87.8,73.2,29.94,East,90,2.0,5.0,62,0.00,,,0.00,meteohub,2013-10-19 16:14:00,
2013-10-19 12:19:00,87.4,72.3,29.95,SE,135,4.0,5.0,61,0.00,,,0.00,meteohub,2013-10-19 16:19:00,
2013-10-19 12:24:00,87.4,72.3,29.94,SW,225,3.0,8.0,61,0.00,,,0.00,meteohub,2013-10-19 16:24:00,
2013-10-19 12:29:00,87.3,72.1,29.94,South,180,2.0,8.0,61,0.00,,,0.00,meteohub,2013-10-19 16:29:00,
2013-10-19 12:34:00,87.3,71.6,29.94,SW,225,2.0,8.0,60,0.00,,,0.00,meteohub,2013-10-19 16:34:00,
2013-10-19 12:39:00,87.4,71.8,29.94,South,180,2.0,9.0,60,0.00,,,0.00,meteohub,2013-10-19 16:39:00,
2013-10-19 12:44:00,87.4,71.4,29.94,SE,135,3.0,9.0,59,0.00,,,0.00,meteohub,2013-10-19 16:44:00,
2013-10-19 12:49:00,87.6,72.5,29.93,SE,135,4.0,9.0,61,0.00,,,0.00,meteohub,2013-10-19 16:49:00,
2013-10-19 12:54:00,88.5,71.8,29.93,South,180,4.0,7.0,58,0.00,,,0.00,meteohub,2013-10-19 16:54:00,
2013-10-19 12:59:00,88.7,72.0,29.93,South,180,5.0,7.0,58,0.00,,,0.00,meteohub,2013-10-19 16:59:00,
2013-10-19 13:04:00,88.7,71.1,29.92,SW,225,6.0,6.0,56,0.00,,,0.00,meteohub,2013-10-19 17:04:00,
2013-10-19 13:09:00,88.9,71.6,29.92,South,180,6.0,6.0,57,0.00,,,0.00,meteohub,2013-10-19 17:09:00,
2013-10-19 13:14:00,89.4,72.1,29.92,SE,135,2.0,6.0,57,0.00,,,0.00,meteohub,2013-10-19 17:14:00,
2013-10-19 13:20:00,90.0,71.1,29.92,South,180,3.0,8.0,54,0.00,,,0.00,meteohub,2013-10-19 17:20:00,
2013-10-19 13:25:00,90.3,71.4,29.92,NW,315,2.0,8.0,54,0.00,,,0.00,meteohub,2013-10-19 17:25:00,
2013-10-19 13:30:00,90.5,71.6,29.91,South,180,4.0,6.0,54,0.00,,,0.00,meteohub,2013-10-19 17:30:00,
2013-10-19 13:35:00,89.6,70.2,29.91,SW,225,4.0,6.0,53,0.00,,,0.00,meteohub,2013-10-19 17:35:00,
2013-10-19 13:40:00,88.2,70.5,29.91,South,180,4.0,8.0,56,0.00,,,0.00,meteohub,2013-10-19 17:40:00,
2013-10-19 13:45:00,87.6,71.6,29.91,SW,225,4.0,8.0,59,0.00,,,0.00,meteohub,2013-10-19 17:45:00,
2013-10-19 13:50:00,88.0,71.4,29.91,SW,225,5.0,11.0,58,0.00,,,0.00,meteohub,2013-10-19 17:50:00,
2013-10-19 13:55:00,87.8,71.2,29.90,South,180,7.0,11.0,58,0.00,,,0.00,meteohub,2013-10-19 17:55:00,
2013-10-19 14:00:00,87.4,71.8,29.90,SE,135,3.0,11.0,60,0.00,,,0.00,meteohub,2013-10-19 18:00:00,
2013-10-19 14:05:00,86.9,70.9,29.89,SW,225,2.0,7.0,59,0.00,,,0.00,meteohub,2013-10-19 18:05:00,
2013-10-19 14:10:00,87.4,72.3,29.89,SE,135,2.0,7.0,61,0.00,,,0.00,meteohub,2013-10-19 18:10:00,
2013-10-19 14:15:00,88.7,72.0,29.89,South,180,1.0,4.0,58,0.00,,,0.00,meteohub,2013-10-19 18:15:00,
2013-10-19 14:20:00,90.0,71.1,29.89,NW,315,4.0,4.0,54,0.00,,,0.00,meteohub,2013-10-19 18:20:00,
2013-10-19 14:26:00,90.0,70.5,29.88,NW,315,4.0,6.0,53,0.00,,,0.00,meteohub,2013-10-19 18:26:00,
2013-10-19 14:31:00,90.5,70.5,29.88,WNW,293,3.0,6.0,52,0.00,,,0.00,meteohub,2013-10-19 18:31:00,
2013-10-19 14:36:00,90.7,70.0,29.88,SW,225,4.0,5.0,51,0.00,,,0.00,meteohub,2013-10-19 18:36:00,
2013-10-19 14:41:00,89.8,69.3,29.88,East,90,1.0,5.0,51,0.00,,,0.00,meteohub,2013-10-19 18:41:00,
2013-10-19 14:46:00,90.0,69.4,29.88,North,0,5.0,5.0,51,0.00,,,0.00,meteohub,2013-10-19 18:46:00,
2013-10-19 14:51:00,90.9,70.2,29.88,East,90,8.0,8.0,51,0.00,,,0.00,meteohub,2013-10-19 18:51:00,
2013-10-19 14:56:00,90.9,69.1,29.88,SW,225,2.0,8.0,49,0.00,,,0.00,meteohub,2013-10-19 18:56:00,
2013-10-19 15:02:00,90.7,67.6,29.88,SW,225,3.0,8.0,47,0.00,,,0.00,meteohub,2013-10-19 19:02:00,
2013-10-19 15:07:00,90.3,68.0,29.88,SW,225,3.0,8.0,48,0.00,,,0.00,meteohub,2013-10-19 19:07:00,
2013-10-19 15:12:00,90.0,68.9,29.88,SE,135,1.0,4.0,50,0.00,,,0.00,meteohub,2013-10-19 19:12:00,
2013-10-19 15:17:00,90.3,69.1,29.88,South,180,1.0,4.0,50,0.00,,,0.00,meteohub,2013-10-19 19:17:00,
2013-10-19 15:22:00,90.0,68.2,29.88,SW,225,2.0,4.0,49,0.00,,,0.00,meteohub,2013-10-19 19:22:00,
2013-10-19 15:27:00,89.2,69.3,29.88,SW,225,2.0,5.0,52,0.00,,,0.00,meteohub,2013-10-19 19:27:00,
2013-10-19 15:32:00,89.2,69.8,29.88,SE,135,2.0,5.0,53,0.00,,,0.00,meteohub,2013-10-19 19:32:00,
2013-10-19 15:37:00,89.2,69.8,29.88,West,270,2.0,6.0,53,0.00,,,0.00,meteohub,2013-10-19 19:37:00,
2013-10-19 15:42:00,89.2,69.8,29.88,East,90,2.0,6.0,53,0.00,,,0.00,meteohub,2013-10-19 19:42:00,
2013-10-19 15:47:00,89.2,69.8,29.88,South,180,6.0,6.0,53,0.00,,,0.00,meteohub,2013-10-19 19:47:00,
2013-10-19 15:52:00,89.1,69.6,29.87,SE,135,3.0,6.0,53,0.00,,,0.00,meteohub,2013-10-19 19:52:00,
2013-10-19 15:57:00,89.1,70.2,29.87,East,90,5.0,6.0,54,0.00,,,0.00,meteohub,2013-10-19 19:57:00,
2013-10-19 16:02:00,88.7,70.0,29.87,SE,135,4.0,6.0,54,0.00,,,0.00,meteohub,2013-10-19 20:02:00,
2013-10-19 16:07:00,88.5,69.8,29.87,South,180,6.0,6.0,54,0.00,,,0.00,meteohub,2013-10-19 20:07:00,
2013-10-19 16:12:00,88.3,69.6,29.87,SW,225,3.0,6.0,54,0.00,,,0.00,meteohub,2013-10-19 20:12:00,
2013-10-19 16:17:00,88.2,69.4,29.87,SE,135,4.0,6.0,54,0.00,,,0.00,meteohub,2013-10-19 20:17:00,
2013-10-19 16:22:00,88.0,69.3,29.87,South,180,4.0,6.0,54,0.00,,,0.00,meteohub,2013-10-19 20:22:00,
2013-10-19 16:28:00,88.0,69.8,29.87,SW,225,3.0,4.0,55,0.00,,,0.00,meteohub,2013-10-19 20:28:00,
2013-10-19 16:33:00,88.0,69.8,29.87,SE,135,2.0,4.0,55,0.00,,,0.00,meteohub,2013-10-19 20:33:00,
2013-10-19 16:38:00,88.0,69.3,29.87,East,90,1.0,4.0,54,0.00,,,0.00,meteohub,2013-10-19 20:38:00,
2013-10-19 16:43:00,88.0,69.3,29.87,SW,225,0.0,3.0,54,0.00,,,0.00,meteohub,2013-10-19 20:43:00,
2013-10-19 16:48:00,88.0,70.3,29.87,South,180,2.0,3.0,56,0.00,,,0.00,meteohub,2013-10-19 20:48:00,
2013-10-19 16:53:00,87.8,69.6,29.87,SW,225,0.0,2.0,55,0.00,,,0.00,meteohub,2013-10-19 20:53:00,
2013-10-19 16:58:00,87.4,70.3,29.87,South,180,2.0,3.0,57,0.00,,,0.00,meteohub,2013-10-19 20:58:00,
2013-10-19 17:03:00,87.4,70.3,29.87,SW,225,2.0,3.0,57,0.00,,,0.00,meteohub,2013-10-19 21:03:00,
2013-10-19 17:08:00,87.8,69.6,29.87,SE,135,4.0,4.0,55,0.00,,,0.00,meteohub,2013-10-19 21:08:00,
2013-10-19 17:14:00,88.0,69.3,29.87,SW,225,2.0,7.0,54,0.00,,,0.00,meteohub,2013-10-19 21:14:00,
2013-10-19 17:19:00,88.0,69.8,29.87,East,90,2.0,7.0,55,0.00,,,0.00,meteohub,2013-10-19 21:19:00,
2013-10-19 17:24:00,88.5,70.3,29.87,South,180,5.0,7.0,55,0.00,,,0.00,meteohub,2013-10-19 21:24:00,
2013-10-19 17:29:00,88.3,69.1,29.87,South,180,3.0,5.0,53,0.00,,,0.00,meteohub,2013-10-19 21:29:00,
2013-10-19 17:34:00,88.5,68.7,29.87,SW,225,3.0,5.0,52,0.00,,,0.00,meteohub,2013-10-19 21:34:00,
2013-10-19 17:39:00,88.3,69.1,29.87,South,180,5.0,7.0,53,0.00,,,0.00,meteohub,2013-10-19 21:39:00,
2013-10-19 17:44:00,88.0,68.7,29.87,SE,135,2.0,7.0,53,0.00,,,0.00,meteohub,2013-10-19 21:44:00,
2013-10-19 17:49:00,87.4,68.7,29.87,SE,135,3.0,7.0,54,0.00,,,0.00,meteohub,2013-10-19 21:49:00,
2013-10-19 17:54:00,87.1,68.9,29.87,East,90,2.0,5.0,55,0.00,,,0.00,meteohub,2013-10-19 21:54:00,
2013-10-19 17:59:00,86.9,68.7,29.87,South,180,4.0,4.0,55,0.00,,,0.00,meteohub,2013-10-19 21:59:00,
2013-10-19 18:04:00,86.7,68.5,29.87,SW,225,1.0,4.0,55,0.00,,,0.00,meteohub,2013-10-19 22:04:00,
2013-10-19 18:09:00,86.4,68.7,29.87,SW,225,2.0,4.0,56,0.00,,,0.00,meteohub,2013-10-19 22:09:00,
2013-10-19 18:14:00,86.4,68.7,29.87,South,180,0.0,4.0,56,0.00,,,0.00,meteohub,2013-10-19 22:14:00,
2013-10-19 18:19:00,86.0,68.5,29.87,South,180,2.0,4.0,56,0.00,,,0.00,meteohub,2013-10-19 22:19:00,
2013-10-19 18:24:00,86.0,68.5,29.87,SW,225,1.0,2.0,56,0.00,,,0.00,meteohub,2013-10-19 22:24:00,
2013-10-19 18:30:00,85.6,68.7,29.87,SW,225,4.0,4.0,57,0.00,,,0.00,meteohub,2013-10-19 22:30:00,
2013-10-19 18:35:00,85.6,68.7,29.87,SW,225,2.0,3.0,57,0.00,,,0.00,meteohub,2013-10-19 22:35:00,
2013-10-19 18:40:00,85.5,68.5,29.88,East,90,2.0,4.0,57,0.00,,,0.00,meteohub,2013-10-19 22:40:00,
2013-10-19 18:45:00,85.3,68.9,29.88,East,90,0.0,4.0,58,0.00,,,0.00,meteohub,2013-10-19 22:45:00,
2013-10-19 18:50:00,85.1,68.7,29.88,East,90,0.0,4.0,58,0.00,,,0.00,meteohub,2013-10-19 22:50:00,
2013-10-19 18:55:00,84.6,68.7,29.88,East,90,0.0,2.0,59,0.00,,,0.00,meteohub,2013-10-19 22:55:00,
2013-10-19 19:00:00,84.2,68.7,29.88,North,0,0.0,0.0,60,0.00,,,0.00,meteohub,2013-10-19 23:00:00,
2013-10-19 19:05:00,83.8,70.0,29.89,North,0,0.0,4.0,63,0.00,,,0.00,meteohub,2013-10-19 23:05:00,
2013-10-19 19:10:00,83.5,70.9,29.88,NE,45,2.0,4.0,66,0.00,,,0.00,meteohub,2013-10-19 23:10:00,
2013-10-19 19:15:00,83.1,71.4,29.89,West,270,2.0,4.0,68,0.00,,,0.00,meteohub,2013-10-19 23:15:00,
2013-10-19 19:20:00,82.6,71.8,29.89,North,0,1.0,3.0,70,0.00,,,0.00,meteohub,2013-10-19 23:20:00,
2013-10-19 19:25:00,82.4,72.0,29.89,North,0,0.0,3.0,71,0.00,,,0.00,meteohub,2013-10-19 23:25:00,
2013-10-19 19:31:00,82.2,72.3,29.89,North,0,2.0,2.0,72,0.00,,,0.00,meteohub,2013-10-19 23:31:00,
2013-10-19 19:36:00,82.0,72.5,29.90,NW,315,2.0,2.0,73,0.00,,,0.00,meteohub,2013-10-19 23:36:00,
2013-10-19 19:41:00,81.9,72.3,29.90,North,0,0.0,2.0,73,0.00,,,0.00,meteohub,2013-10-19 23:41:00,
2013-10-19 19:46:00,81.7,72.5,29.90,North,0,1.0,2.0,74,0.00,,,0.00,meteohub,2013-10-19 23:46:00,
2013-10-19 19:51:00,81.5,72.3,29.90,West,270,0.0,2.0,74,0.00,,,0.00,meteohub,2013-10-19 23:51:00,
2013-10-19 19:56:00,81.3,72.3,29.90,North,0,0.0,1.0,74,0.00,,,0.00,meteohub,2013-10-19 23:56:00,
2013-10-19 20:01:00,81.3,72.7,29.90,North,0,0.0,1.0,75,0.00,,,0.00,meteohub,2013-10-20 00:01:00,
2013-10-19 20:06:00,81.1,72.5,29.90,North,0,0.0,1.0,75,0.00,,,0.00,meteohub,2013-10-20 00:06:00,
2013-10-19 20:11:00,81.0,72.3,29.90,North,0,0.0,0.0,75,0.00,,,0.00,meteohub,2013-10-20 00:11:00,
2013-10-19 20:16:00,80.8,72.1,29.91,North,0,0.0,0.0,75,0.00,,,0.00,meteohub,2013-10-20 00:16:00,
2013-10-19 20:21:00,80.8,72.5,29.91,North,0,0.0,0.0,76,0.00,,,0.00,meteohub,2013-10-20 00:21:00,
2013-10-19 20:27:00,80.8,72.5,29.91,North,0,0.0,0.0,76,0.00,,,0.00,meteohub,2013-10-20 00:27:00,
2013-10-19 20:32:00,80.6,72.3,29.90,North,0,0.0,0.0,76,0.00,,,0.00,meteohub,2013-10-20 00:32:00,
2013-10-19 20:37:00,80.6,72.3,29.91,North,0,0.0,0.0,76,0.00,,,0.00,meteohub,2013-10-20 00:37:00,
2013-10-19 20:42:00,80.6,72.7,29.91,North,0,0.0,0.0,77,0.00,,,0.00,meteohub,2013-10-20 00:42:00,
2013-10-19 20:47:00,80.4,72.9,29.91,North,0,0.0,0.0,78,0.00,,,0.00,meteohub,2013-10-20 00:47:00,
2013-10-19 20:52:00,80.4,72.9,29.91,North,0,0.0,0.0,78,0.00,,,0.00,meteohub,2013-10-20 00:52:00,
2013-10-19 20:57:00,80.2,72.7,29.91,North,0,0.0,0.0,78,0.00,,,0.00,meteohub,2013-10-20 00:57:00,
2013-10-19 21:02:00,80.2,73.0,29.91,North,0,0.0,0.0,79,0.00,,,0.00,meteohub,2013-10-20 01:02:00,
2013-10-19 21:07:00,80.1,73.0,29.91,North,0,0.0,0.0,79,0.00,,,0.00,meteohub,2013-10-20 01:07:00,
2013-10-19 21:12:00,80.1,73.0,29.91,North,0,0.0,0.0,79,0.00,,,0.00,meteohub,2013-10-20 01:12:00,
2013-10-19 21:17:00,79.9,73.2,29.91,North,0,0.0,0.0,80,0.00,,,0.00,meteohub,2013-10-20 01:17:00,
2013-10-19 21:22:00,79.9,73.2,29.91,North,0,0.0,0.0,80,0.00,,,0.00,meteohub,2013-10-20 01:22:00,
2013-10-19 21:27:00,79.7,73.0,29.91,North,0,0.0,0.0,80,0.00,,,0.00,meteohub,2013-10-20 01:27:00,
2013-10-19 21:32:00,79.7,73.0,29.91,North,0,0.0,0.0,80,0.00,,,0.00,meteohub,2013-10-20 01:32:00,
2013-10-19 21:37:00,79.7,73.4,29.91,NE,45,0.0,0.0,81,0.00,,,0.00,meteohub,2013-10-20 01:37:00,
2013-10-19 21:42:00,79.7,73.4,29.92,NE,45,0.0,0.0,81,0.00,,,0.00,meteohub,2013-10-20 01:42:00,
2013-10-19 21:47:00,79.7,73.8,29.92,SE,135,0.0,0.0,82,0.00,,,0.00,meteohub,2013-10-20 01:47:00,
2013-10-19 21:52:00,79.7,73.8,29.92,SE,135,0.0,0.0,82,0.00,,,0.00,meteohub,2013-10-20 01:52:00,
2013-10-19 21:57:00,79.7,73.8,29.92,East,90,0.0,0.0,82,0.00,,,0.00,meteohub,2013-10-20 01:57:00,
2013-10-19 22:02:00,79.7,73.8,29.92,East,90,0.0,0.0,82,0.00,,,0.00,meteohub,2013-10-20 02:02:00,
2013-10-19 22:07:00,79.5,73.6,29.92,East,90,0.0,0.0,82,0.00,,,0.00,meteohub,2013-10-20 02:07:00,
2013-10-19 22:12:00,79.5,73.6,29.91,East,90,0.0,0.0,82,0.00,,,0.00,meteohub,2013-10-20 02:12:00,
2013-10-19 22:17:00,79.5,73.6,29.91,East,90,0.0,0.0,82,0.00,,,0.00,meteohub,2013-10-20 02:17:00,
2013-10-19 22:22:00,79.3,73.4,29.92,East,90,0.0,0.0,82,0.00,,,0.00,meteohub,2013-10-20 02:22:00,
2013-10-19 22:27:00,79.3,73.4,29.92,East,90,0.0,0.0,82,0.00,,,0.00,meteohub,2013-10-20 02:27:00,
2013-10-19 22:32:00,79.2,73.2,29.92,East,90,0.0,0.0,82,0.00,,,0.00,meteohub,2013-10-20 02:32:00,
2013-10-19 22:37:00,78.8,72.9,29.92,East,90,0.0,0.0,82,0.00,,,0.00,meteohub,2013-10-20 02:37:00,
2013-10-19 22:42:00,78.6,73.4,29.92,East,90,0.0,0.0,84,0.00,,,0.00,meteohub,2013-10-20 02:42:00,
2013-10-19 22:47:00,78.4,73.2,29.92,East,90,0.0,0.0,84,0.00,,,0.00,meteohub,2013-10-20 02:47:00,
2013-10-19 22:52:00,78.1,72.9,29.92,East,90,0.0,0.0,84,0.00,,,0.00,meteohub,2013-10-20 02:52:00,
2013-10-19 22:57:00,77.9,72.7,29.92,East,90,0.0,0.0,84,0.00,,,0.00,meteohub,2013-10-20 02:57:00,
2013-10-19 23:02:00,77.5,72.7,29.92,East,90,0.0,0.0,85,0.00,,,0.00,meteohub,2013-10-20 03:02:00,
2013-10-19 23:07:00,77.4,72.5,29.92,East,90,0.0,0.0,85,0.00,,,0.00,meteohub,2013-10-20 03:07:00,
2013-10-19 23:12:00,77.2,72.3,29.92,East,90,0.0,0.0,85,0.00,,,0.00,meteohub,2013-10-20 03:12:00,
2013-10-19 23:17:00,77.0,72.5,29.92,East,90,0.0,0.0,86,0.00,,,0.00,meteohub,2013-10-20 03:17:00,
2013-10-19 23:22:00,77.0,72.5,29.92,East,90,0.0,0.0,86,0.00,,,0.00,meteohub,2013-10-20 03:22:00,
2013-10-19 23:27:00,76.8,72.7,29.92,East,90,0.0,0.0,87,0.00,,,0.00,meteohub,2013-10-20 03:27:00,
2013-10-19 23:32:00,76.8,73.0,29.92,South,180,0.0,0.0,88,0.00,,,0.00,meteohub,2013-10-20 03:32:00,
2013-10-19 23:37:00,77.0,72.9,29.92,South,180,0.0,0.0,87,0.00,,,0.00,meteohub,2013-10-20 03:37:00,
2013-10-19 23:42:00,77.0,72.9,29.92,South,180,0.0,0.0,87,0.00,,,0.00,meteohub,2013-10-20 03:42:00,
2013-10-19 23:47:00,77.2,73.0,29.92,South,180,0.0,0.0,87,0.00,,,0.00,meteohub,2013-10-20 03:47:00,
2013-10-19 23:52:00,77.2,73.0,29.92,South,180,0.0,1.0,87,0.00,,,0.00,meteohub,2013-10-20 03:52:00,
2013-10-19 23:57:00,77.2,73.0,29.92,South,180,0.0,1.0,87,0.00,,,0.00,meteohub,2013-10-20 03:57:00,